sensor_id;sensor_type;location;lat;lon;timestamp;temperature;humidity
1614;DHT22;800;48.824;9.346;2023-01-29T00:01:05;7.70;50.90
1614;DHT22;800;48.824;9.346;2023-01-29T00:03:32;7.60;51.00
1614;DHT22;800;48.824;9.346;2023-01-29T00:05:57;7.70;51.10
1614;DHT22;800;48.824;9.346;2023-01-29T00:08:23;7.70;50.90
1614;DHT22;800;48.824;9.346;2023-01-29T00:10:49;7.80;50.50
1614;DHT22;800;48.824;9.346;2023-01-29T00:13:15;7.80;50.70
1614;DHT22;800;48.824;9.346;2023-01-29T00:15:40;7.80;50.70
1614;DHT22;800;48.824;9.346;2023-01-29T00:18:06;7.80;50.70
1614;DHT22;800;48.824;9.346;2023-01-29T00:20:32;7.80;50.80
1614;DHT22;800;48.824;9.346;2023-01-29T00:22:58;7.80;50.90
1614;DHT22;800;48.824;9.346;2023-01-29T00:25:24;7.80;50.80
1614;DHT22;800;48.824;9.346;2023-01-29T00:27:50;7.80;50.70
1614;DHT22;800;48.824;9.346;2023-01-29T00:30:16;7.80;50.60
1614;DHT22;800;48.824;9.346;2023-01-29T00:32:44;7.80;50.70
1614;DHT22;800;48.824;9.346;2023-01-29T00:35:10;7.90;50.90
1614;DHT22;800;48.824;9.346;2023-01-29T00:37:36;7.80;50.90
1614;DHT22;800;48.824;9.346;2023-01-29T00:40:03;7.80;50.90
1614;DHT22;800;48.824;9.346;2023-01-29T00:42:28;7.80;50.90
1614;DHT22;800;48.824;9.346;2023-01-29T00:45:13;7.80;50.80
1614;DHT22;800;48.824;9.346;2023-01-29T00:47:39;7.80;50.90
1614;DHT22;800;48.824;9.346;2023-01-29T00:50:08;7.80;51.10
1614;DHT22;800;48.824;9.346;2023-01-29T00:52:34;7.80;51.10
1614;DHT22;800;48.824;9.346;2023-01-29T00:55:03;7.80;51.10
1614;DHT22;800;48.824;9.346;2023-01-29T00:57:30;7.80;51.10
1614;DHT22;800;48.824;9.346;2023-01-29T00:59:56;7.70;51.20
1614;DHT22;800;48.824;9.346;2023-01-29T01:02:23;7.80;51.30
1614;DHT22;800;48.824;9.346;2023-01-29T01:05:08;7.80;51.30
1614;DHT22;800;48.824;9.346;2023-01-29T01:07:52;7.80;51.20
1614;DHT22;800;48.824;9.346;2023-01-29T01:10:24;7.80;51.20
1614;DHT22;800;48.824;9.346;2023-01-29T01:12:57;7.70;51.20
1614;DHT22;800;48.824;9.346;2023-01-29T01:15:25;7.70;51.30
1614;DHT22;800;48.824;9.346;2023-01-29T01:17:53;7.70;51.30
1614;DHT22;800;48.824;9.346;2023-01-29T01:20:19;7.70;51.10
1614;DHT22;800;48.824;9.346;2023-01-29T01:22:45;7.70;51.10
1614;DHT22;800;48.824;9.346;2023-01-29T01:25:10;7.70;51.20
1614;DHT22;800;48.824;9.346;2023-01-29T01:27:36;7.70;51.10
1614;DHT22;800;48.824;9.346;2023-01-29T01:30:12;7.60;51.30
1614;DHT22;800;48.824;9.346;2023-01-29T01:32:38;7.60;51.40
1614;DHT22;800;48.824;9.346;2023-01-29T01:35:04;7.50;51.40
1614;DHT22;800;48.824;9.346;2023-01-29T01:37:30;7.50;51.40
1614;DHT22;800;48.824;9.346;2023-01-29T01:39:56;7.50;51.50
1614;DHT22;800;48.824;9.346;2023-01-29T01:42:31;7.50;51.50
1614;DHT22;800;48.824;9.346;2023-01-29T01:45:03;7.40;51.60
1614;DHT22;800;48.824;9.346;2023-01-29T01:47:43;7.40;51.80
1614;DHT22;800;48.824;9.346;2023-01-29T01:50:21;7.40;51.70
1614;DHT22;800;48.824;9.346;2023-01-29T01:52:51;7.40;51.60
1614;DHT22;800;48.824;9.346;2023-01-29T01:55:20;7.40;51.50
1614;DHT22;800;48.824;9.346;2023-01-29T01:57:50;7.40;51.40
1614;DHT22;800;48.824;9.346;2023-01-29T02:00:17;7.40;51.50
1614;DHT22;800;48.824;9.346;2023-01-29T02:02:45;7.40;51.60
1614;DHT22;800;48.824;9.346;2023-01-29T02:05:31;7.40;51.80
1614;DHT22;800;48.824;9.346;2023-01-29T02:08:23;7.30;51.90
1614;DHT22;800;48.824;9.346;2023-01-29T02:11:10;7.20;51.80
1614;DHT22;800;48.824;9.346;2023-01-29T02:13:36;7.10;52.00
1614;DHT22;800;48.824;9.346;2023-01-29T02:16:01;7.10;52.10
1614;DHT22;800;48.824;9.346;2023-01-29T02:18:27;7.10;52.10
1614;DHT22;800;48.824;9.346;2023-01-29T02:21:08;7.10;51.90
1614;DHT22;800;48.824;9.346;2023-01-29T02:26:14;7.00;51.90
1614;DHT22;800;48.824;9.346;2023-01-29T02:28:56;7.00;52.00
1614;DHT22;800;48.824;9.346;2023-01-29T02:39:49;7.10;51.70
1614;DHT22;800;48.824;9.346;2023-01-29T02:42:27;7.10;51.50
1614;DHT22;800;48.824;9.346;2023-01-29T02:45:12;7.00;51.40
1614;DHT22;800;48.824;9.346;2023-01-29T02:47:56;7.00;51.40
1614;DHT22;800;48.824;9.346;2023-01-29T02:50:37;7.00;51.30
1614;DHT22;800;48.824;9.346;2023-01-29T02:53:24;7.10;51.30
1614;DHT22;800;48.824;9.346;2023-01-29T02:56:01;7.00;51.30
1614;DHT22;800;48.824;9.346;2023-01-29T03:01:21;7.00;51.70
1614;DHT22;800;48.824;9.346;2023-01-29T03:03:52;7.00;51.50
1614;DHT22;800;48.824;9.346;2023-01-29T03:06:24;7.00;51.40
1614;DHT22;800;48.824;9.346;2023-01-29T03:08:59;7.00;51.30
1614;DHT22;800;48.824;9.346;2023-01-29T03:11:31;7.10;51.20
1614;DHT22;800;48.824;9.346;2023-01-29T03:14:37;7.00;51.20
1614;DHT22;800;48.824;9.346;2023-01-29T03:17:25;7.00;51.30
1614;DHT22;800;48.824;9.346;2023-01-29T03:19:55;7.00;51.30
1614;DHT22;800;48.824;9.346;2023-01-29T03:22:21;7.00;51.20
1614;DHT22;800;48.824;9.346;2023-01-29T03:24:58;7.10;51.30
1614;DHT22;800;48.824;9.346;2023-01-29T03:27:58;7.10;51.40
1614;DHT22;800;48.824;9.346;2023-01-29T03:30:54;6.90;51.30
1614;DHT22;800;48.824;9.346;2023-01-29T03:33:49;6.90;51.50
1614;DHT22;800;48.824;9.346;2023-01-29T03:36:39;6.90;51.40
1614;DHT22;800;48.824;9.346;2023-01-29T03:39:11;7.00;51.30
1614;DHT22;800;48.824;9.346;2023-01-29T03:41:57;7.00;51.20
1614;DHT22;800;48.824;9.346;2023-01-29T03:47:44;7.00;51.00
1614;DHT22;800;48.824;9.346;2023-01-29T03:50:37;7.10;51.00
1614;DHT22;800;48.824;9.346;2023-01-29T03:53:50;7.10;50.90
1614;DHT22;800;48.824;9.346;2023-01-29T03:58:39;7.00;51.00
1614;DHT22;800;48.824;9.346;2023-01-29T04:03:47;6.80;51.20
1614;DHT22;800;48.824;9.346;2023-01-29T04:06:21;6.80;51.20
1614;DHT22;800;48.824;9.346;2023-01-29T04:09:14;6.90;51.20
1614;DHT22;800;48.824;9.346;2023-01-29T04:11:46;7.00;51.20
1614;DHT22;800;48.824;9.346;2023-01-29T04:14:13;7.00;51.10
1614;DHT22;800;48.824;9.346;2023-01-29T04:16:43;7.00;51.10
1614;DHT22;800;48.824;9.346;2023-01-29T04:19:10;7.00;51.10
1614;DHT22;800;48.824;9.346;2023-01-29T04:21:37;7.00;51.10
1614;DHT22;800;48.824;9.346;2023-01-29T04:24:04;7.00;51.10
1614;DHT22;800;48.824;9.346;2023-01-29T04:31:56;7.00;51.00
1614;DHT22;800;48.824;9.346;2023-01-29T04:34:28;7.10;50.90
1614;DHT22;800;48.824;9.346;2023-01-29T04:37:19;7.00;50.80
1614;DHT22;800;48.824;9.346;2023-01-29T04:40:07;7.00;50.90
1614;DHT22;800;48.824;9.346;2023-01-29T04:50:39;7.00;50.80
1614;DHT22;800;48.824;9.346;2023-01-29T04:53:22;7.00;50.90
1614;DHT22;800;48.824;9.346;2023-01-29T04:55:54;7.00;50.90
1614;DHT22;800;48.824;9.346;2023-01-29T04:58:34;7.00;50.90
1614;DHT22;800;48.824;9.346;2023-01-29T05:01:05;7.00;50.80
1614;DHT22;800;48.824;9.346;2023-01-29T05:03:31;7.00;50.80
1614;DHT22;800;48.824;9.346;2023-01-29T05:05:59;7.00;50.70
1614;DHT22;800;48.824;9.346;2023-01-29T05:08:27;7.10;50.80
1614;DHT22;800;48.824;9.346;2023-01-29T05:10:56;7.00;50.80
1614;DHT22;800;48.824;9.346;2023-01-29T05:13:25;7.00;50.70
1614;DHT22;800;48.824;9.346;2023-01-29T05:15:53;7.00;50.80
1614;DHT22;800;48.824;9.346;2023-01-29T05:18:20;7.00;50.70
1614;DHT22;800;48.824;9.346;2023-01-29T05:20:46;7.00;50.60
1614;DHT22;800;48.824;9.346;2023-01-29T05:23:20;6.90;50.50
1614;DHT22;800;48.824;9.346;2023-01-29T05:25:47;6.90;50.60
1614;DHT22;800;48.824;9.346;2023-01-29T05:28:13;6.90;50.70
1614;DHT22;800;48.824;9.346;2023-01-29T05:30:44;7.00;50.80
1614;DHT22;800;48.824;9.346;2023-01-29T05:33:18;6.90;50.60
1614;DHT22;800;48.824;9.346;2023-01-29T05:35:44;6.90;50.80
1614;DHT22;800;48.824;9.346;2023-01-29T05:38:10;6.90;50.80
1614;DHT22;800;48.824;9.346;2023-01-29T05:40:36;7.00;50.90
1614;DHT22;800;48.824;9.346;2023-01-29T05:43:02;7.00;50.90
1614;DHT22;800;48.824;9.346;2023-01-29T05:45:29;7.00;51.00
1614;DHT22;800;48.824;9.346;2023-01-29T05:47:58;7.00;50.90
1614;DHT22;800;48.824;9.346;2023-01-29T05:50:25;7.00;50.90
1614;DHT22;800;48.824;9.346;2023-01-29T05:53:01;7.00;50.90
1614;DHT22;800;48.824;9.346;2023-01-29T05:55:27;7.00;50.80
1614;DHT22;800;48.824;9.346;2023-01-29T05:57:56;6.90;50.70
1614;DHT22;800;48.824;9.346;2023-01-29T06:00:21;6.90;51.00
1614;DHT22;800;48.824;9.346;2023-01-29T06:02:48;6.80;51.10
1614;DHT22;800;48.824;9.346;2023-01-29T06:05:14;6.80;51.10
1614;DHT22;800;48.824;9.346;2023-01-29T06:07:39;6.90;51.00
1614;DHT22;800;48.824;9.346;2023-01-29T06:10:13;6.90;50.90
1614;DHT22;800;48.824;9.346;2023-01-29T06:12:40;6.90;50.90
1614;DHT22;800;48.824;9.346;2023-01-29T06:15:06;6.80;51.00
1614;DHT22;800;48.824;9.346;2023-01-29T06:17:31;6.80;51.00
1614;DHT22;800;48.824;9.346;2023-01-29T06:19:57;6.70;51.00
1614;DHT22;800;48.824;9.346;2023-01-29T06:22:22;6.70;51.30
1614;DHT22;800;48.824;9.346;2023-01-29T06:24:48;6.70;51.40
1614;DHT22;800;48.824;9.346;2023-01-29T06:27:13;6.70;51.30
1614;DHT22;800;48.824;9.346;2023-01-29T06:29:39;6.80;51.30
1614;DHT22;800;48.824;9.346;2023-01-29T06:32:05;6.80;51.10
1614;DHT22;800;48.824;9.346;2023-01-29T06:34:30;6.80;51.10
1614;DHT22;800;48.824;9.346;2023-01-29T06:36:56;6.90;51.10
1614;DHT22;800;48.824;9.346;2023-01-29T06:39:21;6.80;50.90
1614;DHT22;800;48.824;9.346;2023-01-29T06:41:47;6.70;51.00
1614;DHT22;800;48.824;9.346;2023-01-29T06:44:12;6.70;51.20
1614;DHT22;800;48.824;9.346;2023-01-29T06:46:38;6.70;51.40
1614;DHT22;800;48.824;9.346;2023-01-29T06:49:04;6.60;51.50
1614;DHT22;800;48.824;9.346;2023-01-29T06:51:29;6.60;51.60
1614;DHT22;800;48.824;9.346;2023-01-29T06:53:55;6.70;51.60
1614;DHT22;800;48.824;9.346;2023-01-29T06:56:21;6.70;51.60
1614;DHT22;800;48.824;9.346;2023-01-29T06:58:47;6.70;51.40
1614;DHT22;800;48.824;9.346;2023-01-29T07:01:13;6.70;51.40
1614;DHT22;800;48.824;9.346;2023-01-29T07:03:38;6.80;51.30
1614;DHT22;800;48.824;9.346;2023-01-29T07:06:06;6.70;51.20
1614;DHT22;800;48.824;9.346;2023-01-29T07:08:35;6.70;51.10
1614;DHT22;800;48.824;9.346;2023-01-29T07:11:01;6.80;51.20
1614;DHT22;800;48.824;9.346;2023-01-29T07:13:27;6.80;51.10
1614;DHT22;800;48.824;9.346;2023-01-29T07:15:53;6.80;51.10
1614;DHT22;800;48.824;9.346;2023-01-29T07:18:18;6.80;50.90
1614;DHT22;800;48.824;9.346;2023-01-29T07:20:44;6.80;50.90
1614;DHT22;800;48.824;9.346;2023-01-29T07:23:11;6.70;51.00
1614;DHT22;800;48.824;9.346;2023-01-29T07:25:37;6.70;51.20
1614;DHT22;800;48.824;9.346;2023-01-29T07:28:03;6.80;51.20
1614;DHT22;800;48.824;9.346;2023-01-29T07:30:29;6.80;51.10
1614;DHT22;800;48.824;9.346;2023-01-29T07:32:54;6.90;51.00
1614;DHT22;800;48.824;9.346;2023-01-29T07:35:20;6.90;50.90
1614;DHT22;800;48.824;9.346;2023-01-29T07:37:49;6.90;51.00
1614;DHT22;800;48.824;9.346;2023-01-29T07:40:15;6.90;51.20
1614;DHT22;800;48.824;9.346;2023-01-29T07:42:40;6.80;51.30
1614;DHT22;800;48.824;9.346;2023-01-29T07:45:08;6.80;51.30
1614;DHT22;800;48.824;9.346;2023-01-29T07:47:34;6.80;51.30
1614;DHT22;800;48.824;9.346;2023-01-29T07:50:00;6.70;51.60
1614;DHT22;800;48.824;9.346;2023-01-29T07:52:28;6.70;51.70
1614;DHT22;800;48.824;9.346;2023-01-29T07:54:54;6.80;51.60
1614;DHT22;800;48.824;9.346;2023-01-29T07:57:20;6.90;51.40
1614;DHT22;800;48.824;9.346;2023-01-29T07:59:46;6.90;51.20
1614;DHT22;800;48.824;9.346;2023-01-29T08:02:11;7.00;51.10
1614;DHT22;800;48.824;9.346;2023-01-29T08:04:37;7.00;51.00
1614;DHT22;800;48.824;9.346;2023-01-29T08:07:03;7.00;50.90
1614;DHT22;800;48.824;9.346;2023-01-29T08:09:29;7.00;50.80
1614;DHT22;800;48.824;9.346;2023-01-29T08:11:55;7.00;50.80
1614;DHT22;800;48.824;9.346;2023-01-29T08:14:22;7.00;50.80
1614;DHT22;800;48.824;9.346;2023-01-29T08:16:48;7.00;51.00
1614;DHT22;800;48.824;9.346;2023-01-29T08:19:13;7.00;50.80
1614;DHT22;800;48.824;9.346;2023-01-29T08:21:39;6.90;50.80
1614;DHT22;800;48.824;9.346;2023-01-29T08:24:05;6.90;50.90
1614;DHT22;800;48.824;9.346;2023-01-29T08:26:30;6.80;50.60
1614;DHT22;800;48.824;9.346;2023-01-29T08:28:56;6.90;50.60
1614;DHT22;800;48.824;9.346;2023-01-29T08:31:22;7.00;50.50
1614;DHT22;800;48.824;9.346;2023-01-29T08:33:48;7.00;50.40
1614;DHT22;800;48.824;9.346;2023-01-29T08:36:13;7.10;50.30
1614;DHT22;800;48.824;9.346;2023-01-29T08:38:40;7.00;50.30
1614;DHT22;800;48.824;9.346;2023-01-29T08:41:07;7.10;50.30
1614;DHT22;800;48.824;9.346;2023-01-29T08:43:33;7.10;50.10
1614;DHT22;800;48.824;9.346;2023-01-29T08:46:02;7.10;50.00
1614;DHT22;800;48.824;9.346;2023-01-29T08:48:28;7.10;50.00
1614;DHT22;800;48.824;9.346;2023-01-29T08:50:56;7.10;50.10
1614;DHT22;800;48.824;9.346;2023-01-29T08:53:23;7.00;49.90
1614;DHT22;800;48.824;9.346;2023-01-29T08:55:49;7.00;50.20
1614;DHT22;800;48.824;9.346;2023-01-29T08:58:14;7.10;50.20
1614;DHT22;800;48.824;9.346;2023-01-29T09:00:40;7.00;50.30
1614;DHT22;800;48.824;9.346;2023-01-29T09:03:05;7.00;50.20
1614;DHT22;800;48.824;9.346;2023-01-29T09:05:33;7.10;50.10
1614;DHT22;800;48.824;9.346;2023-01-29T09:07:59;7.20;50.10
1614;DHT22;800;48.824;9.346;2023-01-29T09:10:25;7.30;50.00
1614;DHT22;800;48.824;9.346;2023-01-29T09:12:51;7.30;49.70
1614;DHT22;800;48.824;9.346;2023-01-29T09:15:16;7.40;49.70
1614;DHT22;800;48.824;9.346;2023-01-29T09:17:42;7.40;49.60
1614;DHT22;800;48.824;9.346;2023-01-29T09:20:08;7.50;49.70
1614;DHT22;800;48.824;9.346;2023-01-29T09:22:35;7.50;49.40
1614;DHT22;800;48.824;9.346;2023-01-29T09:25:01;7.60;49.50
1614;DHT22;800;48.824;9.346;2023-01-29T09:27:27;7.60;49.90
1614;DHT22;800;48.824;9.346;2023-01-29T09:29:52;7.60;49.10
1614;DHT22;800;48.824;9.346;2023-01-29T09:32:18;7.60;49.00
1614;DHT22;800;48.824;9.346;2023-01-29T09:34:43;7.70;49.10
1614;DHT22;800;48.824;9.346;2023-01-29T09:37:09;7.70;49.20
1614;DHT22;800;48.824;9.346;2023-01-29T09:39:35;7.70;49.20
1614;DHT22;800;48.824;9.346;2023-01-29T09:42:17;7.80;49.30
1614;DHT22;800;48.824;9.346;2023-01-29T09:47:49;7.70;49.10
1614;DHT22;800;48.824;9.346;2023-01-29T09:50:40;7.70;49.10
1614;DHT22;800;48.824;9.346;2023-01-29T09:53:19;7.70;49.10
1614;DHT22;800;48.824;9.346;2023-01-29T09:55:50;7.80;49.20
1614;DHT22;800;48.824;9.346;2023-01-29T09:58:31;7.80;49.10
1614;DHT22;800;48.824;9.346;2023-01-29T10:14:48;7.80;48.00
1614;DHT22;800;48.824;9.346;2023-01-29T10:25:12;8.10;46.70
1614;DHT22;800;48.824;9.346;2023-01-29T10:27:48;8.20;46.50
1614;DHT22;800;48.824;9.346;2023-01-29T10:30:43;8.20;46.50
1614;DHT22;800;48.824;9.346;2023-01-29T10:33:21;8.20;46.20
1614;DHT22;800;48.824;9.346;2023-01-29T10:35:55;8.20;46.00
1614;DHT22;800;48.824;9.346;2023-01-29T10:39:00;8.20;46.10
1614;DHT22;800;48.824;9.346;2023-01-29T10:47:06;8.40;46.00
1614;DHT22;800;48.824;9.346;2023-01-29T10:58:33;8.10;45.90
1614;DHT22;800;48.824;9.346;2023-01-29T11:00:40;8.10;46.30
1614;DHT22;800;48.824;9.346;2023-01-29T11:03:16;8.20;46.20
1614;DHT22;800;48.824;9.346;2023-01-29T11:11:32;8.40;46.10
1614;DHT22;800;48.824;9.346;2023-01-29T11:14:05;8.40;46.40
1614;DHT22;800;48.824;9.346;2023-01-29T11:16:44;8.40;45.90
1614;DHT22;800;48.824;9.346;2023-01-29T11:19:11;8.50;45.80
1614;DHT22;800;48.824;9.346;2023-01-29T11:21:57;8.60;45.90
1614;DHT22;800;48.824;9.346;2023-01-29T11:24:23;8.70;45.80
1614;DHT22;800;48.824;9.346;2023-01-29T11:26:51;8.70;45.60
1614;DHT22;800;48.824;9.346;2023-01-29T11:29:28;8.70;45.40
1614;DHT22;800;48.824;9.346;2023-01-29T11:31:56;8.90;45.30
1614;DHT22;800;48.824;9.346;2023-01-29T11:34:23;8.90;44.90
1614;DHT22;800;48.824;9.346;2023-01-29T11:37:03;8.70;44.90
1614;DHT22;800;48.824;9.346;2023-01-29T11:39:42;8.70;45.20
1614;DHT22;800;48.824;9.346;2023-01-29T11:42:21;8.60;45.00
1614;DHT22;800;48.824;9.346;2023-01-29T11:44:47;8.70;45.10
1614;DHT22;800;48.824;9.346;2023-01-29T11:49:49;8.80;44.80
1614;DHT22;800;48.824;9.346;2023-01-29T11:52:19;8.90;44.90
1614;DHT22;800;48.824;9.346;2023-01-29T11:57:32;8.90;44.10
1614;DHT22;800;48.824;9.346;2023-01-29T12:00:02;8.90;44.60
1614;DHT22;800;48.824;9.346;2023-01-29T12:02:35;8.90;44.70
1614;DHT22;800;48.824;9.346;2023-01-29T12:05:13;8.80;44.80
1614;DHT22;800;48.824;9.346;2023-01-29T12:07:41;8.70;45.20
1614;DHT22;800;48.824;9.346;2023-01-29T12:13:24;8.70;45.10
1614;DHT22;800;48.824;9.346;2023-01-29T12:16:15;8.80;44.90
1614;DHT22;800;48.824;9.346;2023-01-29T12:21:50;8.50;45.30
1614;DHT22;800;48.824;9.346;2023-01-29T12:24:27;8.40;45.40
1614;DHT22;800;48.824;9.346;2023-01-29T12:27:23;8.60;45.60
1614;DHT22;800;48.824;9.346;2023-01-29T12:29:54;8.80;45.60
1614;DHT22;800;48.824;9.346;2023-01-29T12:32:31;8.90;45.30
1614;DHT22;800;48.824;9.346;2023-01-29T12:35:22;9.10;44.80
1614;DHT22;800;48.824;9.346;2023-01-29T12:38:02;9.20;44.50
1614;DHT22;800;48.824;9.346;2023-01-29T12:40:43;9.10;44.00
1614;DHT22;800;48.824;9.346;2023-01-29T12:43:21;8.90;45.10
1614;DHT22;800;48.824;9.346;2023-01-29T12:45:53;9.00;45.40
1614;DHT22;800;48.824;9.346;2023-01-29T12:48:35;9.10;45.00
1614;DHT22;800;48.824;9.346;2023-01-29T12:51:09;9.20;45.10
1614;DHT22;800;48.824;9.346;2023-01-29T12:53:52;9.40;44.90
1614;DHT22;800;48.824;9.346;2023-01-29T12:56:37;9.50;44.40
1614;DHT22;800;48.824;9.346;2023-01-29T12:59:26;9.50;44.20
1614;DHT22;800;48.824;9.346;2023-01-29T13:01:55;9.60;44.50
1614;DHT22;800;48.824;9.346;2023-01-29T13:04:39;9.70;44.80
1614;DHT22;800;48.824;9.346;2023-01-29T13:07:13;9.70;43.60
1614;DHT22;800;48.824;9.346;2023-01-29T13:09:44;9.70;43.40
1614;DHT22;800;48.824;9.346;2023-01-29T13:12:13;9.70;43.40
1614;DHT22;800;48.824;9.346;2023-01-29T13:17:35;9.80;43.50
1614;DHT22;800;48.824;9.346;2023-01-29T13:20:18;9.70;43.70
1614;DHT22;800;48.824;9.346;2023-01-29T13:22:45;9.70;43.70
1614;DHT22;800;48.824;9.346;2023-01-29T13:25:16;9.80;43.70
1614;DHT22;800;48.824;9.346;2023-01-29T13:27:43;9.80;43.90
1614;DHT22;800;48.824;9.346;2023-01-29T13:32:53;10.00;42.60
1614;DHT22;800;48.824;9.346;2023-01-29T13:35:21;9.40;43.20
1614;DHT22;800;48.824;9.346;2023-01-29T13:37:52;9.50;44.00
1614;DHT22;800;48.824;9.346;2023-01-29T13:40:24;9.70;43.80
1614;DHT22;800;48.824;9.346;2023-01-29T13:42:51;9.90;43.80
1614;DHT22;800;48.824;9.346;2023-01-29T13:45:35;9.90;43.80
1614;DHT22;800;48.824;9.346;2023-01-29T13:48:27;10.00;42.70
1614;DHT22;800;48.824;9.346;2023-01-29T13:50:55;10.10;43.10
1614;DHT22;800;48.824;9.346;2023-01-29T13:53:27;10.00;43.50
1614;DHT22;800;48.824;9.346;2023-01-29T13:55:53;10.10;43.70
1614;DHT22;800;48.824;9.346;2023-01-29T14:00:58;10.20;43.40
1614;DHT22;800;48.824;9.346;2023-01-29T14:13:46;9.90;44.70
1614;DHT22;800;48.824;9.346;2023-01-29T14:18:54;9.80;44.60
1614;DHT22;800;48.824;9.346;2023-01-29T14:21:22;9.80;45.00
1614;DHT22;800;48.824;9.346;2023-01-29T14:23:56;9.70;45.20
1614;DHT22;800;48.824;9.346;2023-01-29T14:26:40;9.70;45.30
1614;DHT22;800;48.824;9.346;2023-01-29T14:31:48;9.70;44.90
1614;DHT22;800;48.824;9.346;2023-01-29T14:34:21;9.70;45.20
1614;DHT22;800;48.824;9.346;2023-01-29T14:36:50;9.80;45.40
1614;DHT22;800;48.824;9.346;2023-01-29T14:39:24;9.90;45.00
1614;DHT22;800;48.824;9.346;2023-01-29T14:41:52;9.90;44.90
1614;DHT22;800;48.824;9.346;2023-01-29T14:53:41;10.10;43.30
1614;DHT22;800;48.824;9.346;2023-01-29T14:56:28;10.10;43.40
1614;DHT22;800;48.824;9.346;2023-01-29T15:01:29;10.10;42.90
1614;DHT22;800;48.824;9.346;2023-01-29T15:06:41;10.30;43.20
1614;DHT22;800;48.824;9.346;2023-01-29T15:11:57;10.30;43.00
1614;DHT22;800;48.824;9.346;2023-01-29T15:14:34;10.40;42.50
1614;DHT22;800;48.824;9.346;2023-01-29T15:19:44;10.30;42.20
1614;DHT22;800;48.824;9.346;2023-01-29T15:22:20;10.40;42.30
1614;DHT22;800;48.824;9.346;2023-01-29T15:25:00;10.40;42.00
1614;DHT22;800;48.824;9.346;2023-01-29T15:27:26;10.40;41.90
1614;DHT22;800;48.824;9.346;2023-01-29T15:29:57;10.50;42.00
1614;DHT22;800;48.824;9.346;2023-01-29T15:32:36;10.50;42.10
1614;DHT22;800;48.824;9.346;2023-01-29T15:35:25;10.40;42.00
1614;DHT22;800;48.824;9.346;2023-01-29T15:38:20;10.50;42.00
1614;DHT22;800;48.824;9.346;2023-01-29T15:43:42;10.40;41.80
1614;DHT22;800;48.824;9.346;2023-01-29T15:46:35;10.40;41.70
1614;DHT22;800;48.824;9.346;2023-01-29T15:49:07;10.30;41.70
1614;DHT22;800;48.824;9.346;2023-01-29T15:51:33;10.20;42.00
1614;DHT22;800;48.824;9.346;2023-01-29T15:54:02;10.20;41.90
1614;DHT22;800;48.824;9.346;2023-01-29T15:56:33;10.20;42.00
1614;DHT22;800;48.824;9.346;2023-01-29T15:59:02;10.00;42.10
1614;DHT22;800;48.824;9.346;2023-01-29T16:01:29;10.00;42.70
1614;DHT22;800;48.824;9.346;2023-01-29T16:03:57;9.90;43.60
1614;DHT22;800;48.824;9.346;2023-01-29T16:06:32;9.90;43.60
1614;DHT22;800;48.824;9.346;2023-01-29T16:09:00;9.90;43.60
1614;DHT22;800;48.824;9.346;2023-01-29T16:11:25;9.80;43.60
1614;DHT22;800;48.824;9.346;2023-01-29T16:13:52;9.70;43.90
1614;DHT22;800;48.824;9.346;2023-01-29T16:16:24;9.70;44.10
1614;DHT22;800;48.824;9.346;2023-01-29T16:18:51;9.60;44.20
1614;DHT22;800;48.824;9.346;2023-01-29T16:21:30;9.60;44.30
1614;DHT22;800;48.824;9.346;2023-01-29T16:24:03;9.60;44.40
1614;DHT22;800;48.824;9.346;2023-01-29T16:26:34;9.50;44.50
1614;DHT22;800;48.824;9.346;2023-01-29T16:29:09;9.40;44.60
1614;DHT22;800;48.824;9.346;2023-01-29T16:31:36;9.40;44.70
1614;DHT22;800;48.824;9.346;2023-01-29T16:34:15;9.30;44.80
1614;DHT22;800;48.824;9.346;2023-01-29T16:36:45;9.20;44.90
1614;DHT22;800;48.824;9.346;2023-01-29T16:44:31;8.90;45.40
1614;DHT22;800;48.824;9.346;2023-01-29T16:47:09;8.90;45.70
1614;DHT22;800;48.824;9.346;2023-01-29T16:52:19;8.70;46.60
1614;DHT22;800;48.824;9.346;2023-01-29T16:54:45;8.60;46.20
1614;DHT22;800;48.824;9.346;2023-01-29T16:57:15;8.60;46.40
1614;DHT22;800;48.824;9.346;2023-01-29T16:59:42;8.50;46.50
1614;DHT22;800;48.824;9.346;2023-01-29T17:02:35;8.50;46.60
1614;DHT22;800;48.824;9.346;2023-01-29T17:05:07;8.40;46.40
1614;DHT22;800;48.824;9.346;2023-01-29T17:07:35;8.30;46.90
1614;DHT22;800;48.824;9.346;2023-01-29T17:10:03;8.30;47.00
1614;DHT22;800;48.824;9.346;2023-01-29T17:12:31;8.20;47.10
1614;DHT22;800;48.824;9.346;2023-01-29T17:14:59;8.20;47.20
1614;DHT22;800;48.824;9.346;2023-01-29T17:17:29;8.10;47.30
1614;DHT22;800;48.824;9.346;2023-01-29T17:19:56;8.10;47.40
1614;DHT22;800;48.824;9.346;2023-01-29T17:22:21;8.00;47.40
1614;DHT22;800;48.824;9.346;2023-01-29T17:24:47;8.00;47.50
1614;DHT22;800;48.824;9.346;2023-01-29T17:27:20;7.90;47.50
1614;DHT22;800;48.824;9.346;2023-01-29T17:29:46;7.90;47.70
1614;DHT22;800;48.824;9.346;2023-01-29T17:32:12;7.90;48.10
1614;DHT22;800;48.824;9.346;2023-01-29T17:34:37;7.80;48.30
1614;DHT22;800;48.824;9.346;2023-01-29T17:37:03;7.80;48.30
1614;DHT22;800;48.824;9.346;2023-01-29T17:39:29;7.80;48.30
1614;DHT22;800;48.824;9.346;2023-01-29T17:41:57;7.70;48.50
1614;DHT22;800;48.824;9.346;2023-01-29T17:44:23;7.50;49.00
1614;DHT22;800;48.824;9.346;2023-01-29T17:46:52;7.50;49.40
1614;DHT22;800;48.824;9.346;2023-01-29T17:49:24;7.40;49.60
1614;DHT22;800;48.824;9.346;2023-01-29T17:51:54;7.40;49.70
1614;DHT22;800;48.824;9.346;2023-01-29T17:54:20;7.50;49.60
1614;DHT22;800;48.824;9.346;2023-01-29T17:56:48;7.50;49.70
1614;DHT22;800;48.824;9.346;2023-01-29T17:59:16;7.40;49.70
1614;DHT22;800;48.824;9.346;2023-01-29T18:01:42;7.50;49.80
1614;DHT22;800;48.824;9.346;2023-01-29T18:04:08;7.40;49.70
1614;DHT22;800;48.824;9.346;2023-01-29T18:06:34;7.30;50.10
1614;DHT22;800;48.824;9.346;2023-01-29T18:09:00;7.30;50.10
1614;DHT22;800;48.824;9.346;2023-01-29T18:11:26;7.30;50.10
1614;DHT22;800;48.824;9.346;2023-01-29T18:13:53;7.20;50.10
1614;DHT22;800;48.824;9.346;2023-01-29T18:16:19;7.20;50.20
1614;DHT22;800;48.824;9.346;2023-01-29T18:18:46;7.20;50.40
1614;DHT22;800;48.824;9.346;2023-01-29T18:21:12;7.10;50.40
1614;DHT22;800;48.824;9.346;2023-01-29T18:23:38;7.20;50.40
1614;DHT22;800;48.824;9.346;2023-01-29T18:26:03;7.10;50.40
1614;DHT22;800;48.824;9.346;2023-01-29T18:28:30;7.10;50.40
1614;DHT22;800;48.824;9.346;2023-01-29T18:30:56;7.10;50.30
1614;DHT22;800;48.824;9.346;2023-01-29T18:33:21;7.00;50.50
1614;DHT22;800;48.824;9.346;2023-01-29T18:35:48;6.90;50.60
1614;DHT22;800;48.824;9.346;2023-01-29T18:38:14;7.00;50.60
1614;DHT22;800;48.824;9.346;2023-01-29T18:40:40;6.90;50.60
1614;DHT22;800;48.824;9.346;2023-01-29T18:43:06;6.90;50.50
1614;DHT22;800;48.824;9.346;2023-01-29T18:45:32;6.90;50.60
1614;DHT22;800;48.824;9.346;2023-01-29T18:47:57;6.90;50.70
1614;DHT22;800;48.824;9.346;2023-01-29T18:50:23;6.90;50.90
1614;DHT22;800;48.824;9.346;2023-01-29T18:52:51;6.90;50.90
1614;DHT22;800;48.824;9.346;2023-01-29T18:55:16;6.90;50.90
1614;DHT22;800;48.824;9.346;2023-01-29T18:57:42;6.80;50.80
1614;DHT22;800;48.824;9.346;2023-01-29T19:00:09;6.80;51.40
1614;DHT22;800;48.824;9.346;2023-01-29T19:02:35;6.70;51.00
1614;DHT22;800;48.824;9.346;2023-01-29T19:05:01;6.60;51.20
1614;DHT22;800;48.824;9.346;2023-01-29T19:07:27;6.60;51.20
1614;DHT22;800;48.824;9.346;2023-01-29T19:09:52;6.60;51.00
1614;DHT22;800;48.824;9.346;2023-01-29T19:12:18;6.70;51.10
1614;DHT22;800;48.824;9.346;2023-01-29T19:14:43;6.70;51.00
1614;DHT22;800;48.824;9.346;2023-01-29T19:17:09;6.70;50.90
1614;DHT22;800;48.824;9.346;2023-01-29T19:19:35;6.70;50.90
1614;DHT22;800;48.824;9.346;2023-01-29T19:22:01;6.70;50.90
1614;DHT22;800;48.824;9.346;2023-01-29T19:24:27;6.60;50.70